Flight Track Log - Related Links

Times and Time Zones

All times are in EDT time to prevent confusion due to time zone crossing. See the ASQ5975 flight status page for this flight to view local times or setup timezone preferences in your user account.

Time Position Orientation Groundspeed Altitude Reporting Facility
EDT Latitude Longitude Course Direction KTS MPH feet Rate Location/Type
Sat 03:11:16 PM 39.8667 -104.5667 95° East 186 214 6,900  Level Denver TRACON
Sat 03:12:16 PM 39.8500 -104.5000 108° East 240 276 7,700 1,222 Climbing Denver TRACON
Sat 03:13:00 PM 39.7700 -104.2174 90° East  Level Estimated
Sat 03:13:04 PM 39.8214 -104.4256 117° Southeast 273 314 9,100  Level Denver Center
Sat 03:14:00 PM 39.7390 -104.0657 108° East  Level Estimated
Sat 03:14:06 PM 39.8081 -104.3236 100° East 286 329 11,100  Level Denver Center
Sat 03:15:00 PM 39.7079 -103.9142 95° East  Level Estimated
Sat 03:15:07 PM 39.7939 -104.2017 99° East 316 364 12,300  Level Denver Center
Sat 03:16:00 PM 39.6765 -103.7628 95° East  Level Estimated
Sat 03:16:09 PM 39.7792 -104.0750 99° East 353 406 13,100  Level Denver Center
Sat 03:17:11 PM 39.7644 -103.9389 98° East 380 437 14,300 1,210 Climbing Denver Center
Sat 03:18:13 PM 39.7414 -103.7925 102° East 384 442 15,600 1,258 Climbing Denver Center
Sat 03:19:15 PM 39.7061 -103.6622 109° East 375 432 16,900 1,161 Climbing Denver Center
Sat 03:20:17 PM 39.6706 -103.5294 109° East 384 442 18,000 1,122 Climbing Denver Center
Sat 03:21:18 PM 39.6353 -103.3944 109° East 393 452 19,200 1,122 Climbing Denver Center
Sat 03:22:20 PM 39.5986 -103.2583 109° East 399 459 20,300 1,113 Climbing Denver Center
Sat 03:23:22 PM 39.5614 -103.1225 110° East 400 460 21,500 1,306 Climbing Denver Center
Sat 03:24:24 PM 39.5164 -102.9581 109° East 404 465 23,000 1,258 Climbing Denver Center
Sat 03:25:26 PM 39.4781 -102.8197 110° East 407 468 24,100 1,122 Climbing Denver Center
Sat 03:26:27 PM 39.4408 -102.6814 109° East 409 471 25,300 1,171 Climbing Denver Center
Sat 03:27:29 PM 39.4028 -102.5444 110° East 406 467 26,500 1,161 Climbing Denver Center
Sat 03:28:31 PM 39.3633 -102.4078 110° East 405 466 27,700 1,258 Climbing Denver Center
Sat 03:29:33 PM 39.3211 -102.2528 109° East 406 467 29,100 1,210 Climbing Denver Center
Sat 03:30:35 PM 39.2839 -102.1231 110° East 403 464 30,200 1,073 Climbing Denver Center
Sat 03:31:36 PM 39.2472 -101.9922 110° East 405 466 31,300 1,220 Climbing Denver Center
Sat 03:32:38 PM 39.2039 -101.8400 110° East 404 465 32,700 1,210 Climbing Denver Center
Sat 03:33:40 PM 39.1661 -101.7056 110° East 402 463 33,800 1,113 Climbing Denver Center
Sat 03:34:42 PM 39.1236 -101.5578 110° East 396 456 35,000 585 Climbing Denver Center
Sat 03:35:43 PM 39.0869 -101.4322 111° Southeast 394 453 35,000  Level Denver Center
Sat 03:36:45 PM 39.0475 -101.2989 111° Southeast 409 471 35,000  Level Denver Center
Sat 03:37:47 PM 39.0000 -101.1381 111° Southeast 432 497 35,000  Level Denver Center
Sat 03:38:49 PM 38.9497 -100.9650 110° East 455 524 35,000  Level Denver Center
Sat 03:39:50 PM 38.9056 -100.8139 111° Southeast 470 541 35,000  Level Denver Center
Sat 03:40:52 PM 38.8594 -100.6594 111° Southeast 480 552 35,000  Level Denver Center
Sat 03:41:54 PM 38.8058 -100.4797 111° Southeast 483 556 35,000  Level Denver Center
Sat 03:42:56 PM 38.7600 -100.3286 111° Southeast 478 550 35,000  Level Denver Center
Sat 03:43:36 PM 38.7283 -100.2247 111° Southeast 477 549 35,000  Level Kansas City Center
Sat 03:44:37 PM 38.6747 -100.0492 111° Southeast 475 547 35,000  Level Kansas City Center
Sat 03:45:38 PM 38.6278 -99.8981 112° Southeast 475 547 35,000  Level Kansas City Center
Sat 03:46:41 PM 38.5808 -99.7467 112° Southeast 476 548 35,000  Level Kansas City Center
Sat 03:47:42 PM 38.5269 -99.5719 111° Southeast 474 545 35,000  Level Kansas City Center
Sat 03:48:42 PM 38.4783 -99.4139 111° Southeast 477 549 35,000  Level Kansas City Center
Sat 03:49:46 PM 38.4283 -99.2564 112° Southeast 478 550 35,000  Level Kansas City Center
Sat 03:50:47 PM 38.3781 -99.0983 112° Southeast 480 552 35,000  Level Kansas City Center
Sat 03:51:48 PM 38.3289 -98.9403 112° Southeast 481 554 35,000  Level Kansas City Center
Sat 03:52:49 PM 38.2786 -98.7814 112° Southeast 483 556 35,000  Level Kansas City Center
Sat 03:53:49 PM 38.2289 -98.6228 112° Southeast 482 555 35,000  Level Kansas City Center
Sat 03:54:54 PM 38.1775 -98.4642 112° Southeast 485 558 35,000  Level Kansas City Center
Sat 03:55:55 PM 38.1167 -98.2739 112° Southeast 484 557 35,000  Level Kansas City Center
Sat 03:56:57 PM 38.0703 -98.1331 113° Southeast 485 558 35,000  Level Kansas City Center
Sat 03:57:57 PM 38.0172 -97.9731 113° Southeast 488 562 35,000  Level Kansas City Center
Sat 03:58:58 PM 37.9564 -97.7883 113° Southeast 486 559 35,000  Level Kansas City Center
Sat 03:59:59 PM 37.9042 -97.6286 112° Southeast 488 562 35,000  Level Kansas City Center
Sat 04:01:03 PM 37.8489 -97.4689 114° Southeast 488 562 35,000  Level Kansas City Center
Sat 04:02:03 PM 37.7981 -97.3108 112° Southeast 486 559 35,000  Level Kansas City Center
Sat 04:03:07 PM 37.7453 -97.1547 113° Southeast 484 557 35,000  Level Kansas City Center
Sat 04:04:08 PM 37.6928 -97.0011 113° Southeast 479 551 35,000  Level Kansas City Center
Sat 04:05:09 PM 37.6408 -96.8478 113° Southeast 476 548 35,000  Level Kansas City Center
Sat 04:06:10 PM 37.5881 -96.6956 114° Southeast 474 545 35,000  Level Kansas City Center
Sat 04:07:11 PM 37.5367 -96.5406 113° Southeast 476 548 35,000  Level Kansas City Center
Sat 04:08:14 PM 37.4736 -96.3622 114° Southeast 480 552 35,000  Level Kansas City Center
Sat 04:09:14 PM 37.4203 -96.2075 113° Southeast 480 552 35,000  Level Kansas City Center
Sat 04:10:18 PM 37.3669 -96.0533 113° Southeast 480 552 35,000  Level Kansas City Center
Sat 04:11:18 PM 37.3128 -95.9006 114° Southeast 478 550 35,000  Level Kansas City Center
Sat 04:12:19 PM 37.2589 -95.7486 114° Southeast 475 547 35,000  Level Kansas City Center
Sat 04:13:22 PM 37.2050 -95.5961 114° Southeast 475 547 35,000  Level Kansas City Center
Sat 04:14:23 PM 37.1511 -95.4453 114° Southeast 473 544 35,000  Level Kansas City Center
Sat 04:15:26 PM 37.0853 -95.2636 114° Southeast 474 545 35,000  Level Kansas City Center
Sat 04:16:27 PM 37.0308 -95.1125 114° Southeast 473 544 35,000  Level Kansas City Center
Sat 04:17:28 PM 36.9747 -94.9625 115° Southeast 473 544 35,000  Level Kansas City Center
Sat 04:18:30 PM 36.9208 -94.8103 114° Southeast 475 547 35,000  Level Kansas City Center
Sat 04:19:31 PM 36.8642 -94.6614 115° Southeast 473 544 35,000  Level Kansas City Center
Sat 04:20:33 PM 36.8081 -94.5106 115° Southeast 475 547 35,000  Level Kansas City Center
Sat 04:21:34 PM 36.7525 -94.3617 115° Southeast 473 544 35,000  Level Kansas City Center
Sat 04:22:38 PM 36.6972 -94.2128 115° Southeast 472 543 35,000  Level Kansas City Center
Sat 04:23:38 PM 36.6411 -94.0622 115° Southeast 474 545 35,000  Level Kansas City Center
Sat 04:24:41 PM 36.5844 -93.9125 115° Southeast 476 548 35,000  Level Kansas City Center
Sat 04:25:43 PM 36.5253 -93.7567 115° Southeast 476 548 35,000  Level Kansas City Center
Sat 04:26:44 PM 36.4703 -93.6078 115° Southeast 475 547 35,000  Level Kansas City Center
Sat 04:27:44 PM 36.4133 -93.4597 116° Southeast 475 547 35,000  Level Kansas City Center
Sat 04:28:51 PM 36.3433 -93.2786 116° Southeast 472 543 35,000  Level Memphis Center
Sat 04:29:51 PM 36.2883 -93.1325 115° Southeast 472 543 35,000  Level Memphis Center
Sat 04:30:51 PM 36.2331 -92.9867 115° Southeast 472 543 35,000  Level Memphis Center
Sat 04:31:51 PM 36.1778 -92.8383 115° Southeast 472 543 35,000  Level Memphis Center
Sat 04:32:51 PM 36.1203 -92.6925 116° Southeast 472 543 35,000  Level Memphis Center
Sat 04:33:51 PM 36.0622 -92.5447 116° Southeast 472 543 35,000  Level Memphis Center
Sat 04:34:51 PM 36.0064 -92.3994 115° Southeast 472 543 35,000  Level Memphis Center
Sat 04:35:51 PM 35.9461 -92.2519 117° Southeast 472 543 35,000  Level Memphis Center
Sat 04:36:51 PM 35.8858 -92.1069 117° Southeast 472 543 35,000  Level Memphis Center
Sat 04:37:51 PM 35.8294 -91.9597 115° Southeast 472 543 35,000  Level Memphis Center
Sat 04:38:51 PM 35.7644 -91.8000 117° Southeast 467 537 35,000  Level Memphis Center
Sat 04:39:51 PM 35.7078 -91.6558 116° Southeast 472 543 35,000  Level Memphis Center
Sat 04:40:51 PM 35.6489 -91.5042 116° Southeast 472 543 35,000  Level Memphis Center
Sat 04:41:51 PM 35.5936 -91.3731 117° Southeast 472 543 35,000  Level Memphis Center
Sat 04:42:51 PM 35.5342 -91.2244 116° Southeast 478 550 35,000  Level Memphis Center
Sat 04:43:51 PM 35.4789 -91.0761 115° Southeast 478 550 35,000  Level Memphis Center
Sat 04:44:51 PM 35.4442 -90.9100 104° East 491 565 35,000  Level Memphis Center
Sat 04:45:51 PM 35.4094 -90.7264 103° East 491 565 35,000  Level Memphis Center
Sat 04:46:51 PM 35.3828 -90.5633 101° East 491 565 35,000  Level Memphis Center
Sat 04:47:51 PM 35.3517 -90.3978 103° East 491 565 35,000  Level Memphis Center
Sat 04:48:51 PM 35.3222 -90.2272 102° East 491 565 35,000  Level Memphis Center
Sat 04:49:51 PM 35.2886 -90.0619 104° East 496 571 35,000  Level Memphis Center
Sat 04:50:51 PM 35.2567 -89.8917 103° East 501 577 35,000  Level Memphis Center
Sat 04:51:51 PM 35.2269 -89.7394 103° East 509 586 35,000  Level Memphis Center
Sat 04:52:51 PM 35.1967 -89.5694 102° East 509 586 35,000  Level Memphis Center
Sat 04:53:51 PM 35.1600 -89.3994 105° East 509 586 35,000  Level Memphis Center
Sat 04:54:51 PM 35.1272 -89.2297 103° East 509 586 35,000  Level Memphis Center
Sat 04:55:51 PM 35.0881 -89.0450 104° East 509 586 35,000 -650 Level Memphis Center
Sat 04:56:51 PM 35.0547 -88.8756 103° East 509 586 33,700 -1,650 Descending Memphis Center
Sat 04:57:51 PM 35.0214 -88.7064 103° East 509 586 31,700 -2,050 Descending Memphis Center
Sat 04:58:51 PM 34.9856 -88.5422 105° East 504 580 29,600 -2,100 Descending Memphis Center
Sat 04:59:51 PM 34.9583 -88.3983 103° East 494 568 27,500 -2,350 Descending Memphis Center
Sat 05:00:51 PM 34.9244 -88.2347 104° East 489 563 24,900 -2,700 Descending Memphis Center
Sat 05:01:51 PM 34.8858 -88.0533 104° East 503 579 22,100 -2,750 Descending Memphis Center
Sat 05:02:51 PM 34.8558 -87.9100 104° East 458 527 19,400 -2,600 Descending Memphis Center
Sat 05:03:51 PM 34.8306 -87.7867 104° East 433 498 16,900 -2,450 Descending Memphis Center
Sat 05:04:51 PM 34.8025 -87.6508 104° East 416 479 14,500 3,550 Descending Memphis Center
Sat 05:05:51 PM 34.7744 -87.5178 104° East 410 472 24,000 -1,750 Climbing Memphis Center
Sat 05:06:51 PM 34.7464 -87.3872 105° East 405 466 11,000 -6,550 Descending Memphis Center
Sat 05:07:51 PM 34.7183 -87.2644 106° East 393 452 10,900 -500 Descending Memphis Center
Sat 05:08:51 PM 34.6947 -87.1517 104° East 365 420 10,000 -1,250 Descending Memphis Center
Sat 05:09:51 PM 34.6425 -87.0731 129° Southeast 321 369 8,400 -1,700 Descending Memphis Center
Sat 05:10:51 PM 34.5858 -86.9869 129° Southeast 302 348 6,600 -1,750 Descending Memphis Center
Sat 05:11:51 PM 34.5219 -86.9364 147° Southeast 273 314 4,900 -1,650 Descending Memphis Center
Sat 05:12:51 PM 34.4444 -86.9219 171° South 273 314 3,300 -950 Descending Memphis Center
Sat 05:13:51 PM 34.4092 -86.8606 125° Southeast 238 274 3,000 -150 Descending Memphis Center
Sat 05:14:51 PM 34.4283 -86.7942 71° East 166 191 3,000  Level Memphis Center
Sat 05:15:51 PM 34.4886 -86.7842 North 134 154 3,000 -450 Level Memphis Center
Sat 05:16:51 PM 34.5428 -86.7844 360° North 162 186 2,100 -850 Descending Memphis Center
Sat 05:17:51 PM 34.5844 -86.7850 359° North 157 181 1,300 -650 Descending Memphis Center
Sat 05:18:51 PM 34.6136 -86.7839 North 147 169 800 -500 Descending Memphis Center

Login

Don't have an account? Register now (free) for customized features, flight alerts, and more!